createdAt,value
2023-05-14T00:02:08.710Z,9.70
2023-05-14T00:04:35.627Z,9.30
2023-05-14T00:07:02.649Z,9.90
2023-05-14T00:09:30.601Z,9.40
2023-05-14T00:11:57.420Z,9.00
2023-05-14T00:14:24.484Z,9.60
2023-05-14T00:16:51.650Z,8.90
2023-05-14T00:19:19.165Z,9.20
2023-05-14T00:21:47.488Z,8.70
2023-05-14T00:24:14.504Z,9.30
2023-05-14T00:26:41.703Z,9.30
2023-05-14T00:29:08.630Z,9.90
2023-05-14T00:31:35.784Z,10.30
2023-05-14T00:34:03.208Z,10.50
2023-05-14T00:36:30.111Z,10.10
2023-05-14T00:38:56.999Z,9.90
2023-05-14T00:41:23.913Z,9.80
2023-05-14T00:43:50.916Z,9.50
2023-05-14T00:46:18.149Z,10.00
2023-05-14T00:48:45.357Z,10.60
2023-05-14T00:51:12.219Z,10.10
2023-05-14T00:53:39.270Z,9.70
2023-05-14T00:56:07.006Z,9.70
2023-05-14T00:58:33.850Z,10.10
2023-05-14T01:01:00.991Z,9.10
2023-05-14T01:03:28.984Z,9.90
2023-05-14T01:06:03.456Z,8.70
2023-05-14T01:08:36.843Z,8.80
2023-05-14T01:11:12.001Z,9.10
2023-05-14T01:13:43.088Z,8.90
2023-05-14T01:16:14.102Z,8.50
2023-05-14T01:18:41.684Z,7.90
2023-05-14T01:21:38.402Z,8.10
2023-05-14T01:24:05.672Z,7.90
2023-05-14T01:26:32.910Z,8.80
2023-05-14T01:29:22.410Z,8.10
2023-05-14T01:31:55.680Z,8.50
2023-05-14T01:34:23.867Z,8.40
2023-05-14T01:36:51.480Z,8.60
2023-05-14T01:39:19.346Z,8.70
2023-05-14T01:41:47.100Z,9.00
2023-05-14T01:44:14.102Z,7.70
2023-05-14T01:46:41.247Z,8.00
2023-05-14T01:49:08.802Z,7.90
2023-05-14T01:51:36.029Z,9.10
2023-05-14T01:54:02.907Z,8.50
2023-05-14T01:56:29.959Z,8.60
2023-05-14T01:58:57.362Z,8.60
2023-05-14T02:01:26.276Z,8.00
2023-05-14T02:03:53.365Z,8.50
2023-05-14T02:06:20.593Z,9.10
2023-05-14T02:08:48.539Z,8.50
2023-05-14T02:11:15.760Z,8.20
2023-05-14T02:13:42.742Z,8.10
2023-05-14T02:16:09.791Z,8.50
2023-05-14T02:18:36.802Z,9.20
2023-05-14T02:21:03.868Z,8.20
2023-05-14T02:23:40.443Z,8.30
2023-05-14T02:26:10.005Z,9.00
2023-05-14T02:28:37.032Z,8.60
2023-05-14T02:31:03.948Z,9.20
2023-05-14T02:33:31.106Z,9.00
2023-05-14T02:35:58.086Z,8.10
2023-05-14T02:38:26.374Z,8.20
2023-05-14T02:40:53.292Z,8.60
2023-05-14T02:43:20.173Z,9.50
2023-05-14T02:45:47.393Z,8.90
2023-05-14T02:48:14.346Z,8.10
2023-05-14T02:50:41.796Z,8.50
2023-05-14T02:53:09.051Z,8.40
2023-05-14T02:55:36.483Z,8.80
2023-05-14T02:58:03.543Z,8.90
2023-05-14T03:00:30.487Z,8.20
2023-05-14T03:02:58.073Z,8.20
2023-05-14T03:05:25.349Z,8.70
2023-05-14T03:07:53.763Z,8.10
2023-05-14T03:10:21.043Z,9.00
2023-05-14T03:12:48.233Z,8.50
2023-05-14T03:15:15.226Z,8.80
2023-05-14T03:17:42.230Z,8.70
2023-05-14T03:20:09.454Z,8.40
2023-05-14T03:22:36.541Z,8.40
2023-05-14T03:25:04.015Z,8.00
2023-05-14T03:27:30.840Z,8.50
2023-05-14T03:29:57.773Z,8.10
2023-05-14T03:32:24.790Z,8.30
2023-05-14T03:34:51.757Z,8.80
2023-05-14T03:37:18.710Z,9.30
2023-05-14T03:39:45.941Z,8.30
2023-05-14T03:42:12.782Z,9.20
2023-05-14T03:44:40.886Z,7.90
2023-05-14T03:47:08.675Z,7.90
2023-05-14T03:49:35.726Z,7.70
2023-05-14T03:52:03.036Z,7.80
2023-05-14T03:54:30.150Z,7.40
2023-05-14T03:56:57.165Z,7.80
2023-05-14T03:59:24.063Z,7.90
2023-05-14T04:01:51.023Z,7.10
2023-05-14T04:04:19.565Z,7.90
2023-05-14T04:06:46.482Z,7.80
2023-05-14T04:09:13.363Z,7.20
2023-05-14T04:11:40.433Z,6.70
2023-05-14T04:14:07.433Z,7.40
2023-05-14T04:16:34.465Z,8.00
2023-05-14T04:19:02.646Z,7.80
2023-05-14T04:21:29.842Z,6.80
2023-05-14T04:23:56.932Z,7.40
2023-05-14T04:26:23.849Z,6.50
2023-05-14T04:28:50.897Z,6.70
2023-05-14T04:31:17.915Z,6.00
2023-05-14T04:33:44.868Z,6.60
2023-05-14T04:36:12.783Z,7.00
2023-05-14T04:38:40.015Z,6.10
2023-05-14T04:41:07.269Z,6.30
2023-05-14T04:43:34.308Z,7.50
2023-05-14T04:46:01.315Z,6.50
2023-05-14T04:48:28.314Z,6.00
2023-05-14T04:50:55.348Z,5.40
2023-05-14T04:53:22.453Z,4.70
2023-05-14T04:55:49.260Z,5.40
2023-05-14T04:58:16.185Z,5.20
2023-05-14T05:00:43.131Z,5.70
2023-05-14T05:03:10.262Z,5.70
2023-05-14T05:05:37.315Z,5.30
2023-05-14T05:08:04.664Z,5.70
2023-05-14T05:10:31.568Z,5.50
2023-05-14T05:12:58.416Z,5.70
2023-05-14T05:15:26.564Z,5.40
2023-05-14T05:17:53.771Z,5.30
2023-05-14T05:20:20.986Z,5.30
2023-05-14T05:22:48.063Z,5.40
2023-05-14T05:25:15.199Z,5.10
2023-05-14T05:27:42.106Z,4.90
2023-05-14T05:30:09.674Z,4.70
2023-05-14T05:32:36.857Z,5.30
2023-05-14T05:35:03.956Z,4.70
2023-05-14T05:37:31.916Z,5.00
2023-05-14T05:39:58.925Z,4.40
2023-05-14T05:42:26.428Z,4.50
2023-05-14T05:44:53.412Z,4.70
2023-05-14T05:47:20.208Z,5.30
2023-05-14T05:49:47.142Z,5.60
2023-05-14T05:52:14.167Z,5.00
2023-05-14T05:54:41.106Z,4.60
2023-05-14T05:57:07.995Z,4.70
2023-05-14T05:59:35.013Z,4.90
2023-05-14T06:02:02.080Z,4.60
2023-05-14T06:04:29.105Z,5.00
2023-05-14T06:06:56.080Z,4.30
2023-05-14T06:09:23.000Z,4.80
2023-05-14T06:11:49.930Z,4.20
2023-05-14T06:14:16.860Z,4.20
2023-05-14T06:16:43.843Z,4.50
2023-05-14T06:19:11.193Z,4.50
2023-05-14T06:21:38.317Z,4.70
2023-05-14T06:24:05.623Z,4.40
2023-05-14T06:26:32.616Z,4.70
2023-05-14T06:28:59.563Z,4.90
2023-05-14T06:31:26.636Z,4.90
2023-05-14T06:33:53.442Z,4.60
2023-05-14T06:36:20.375Z,4.70
2023-05-14T06:38:47.242Z,5.20
2023-05-14T06:41:14.187Z,4.90
2023-05-14T06:43:41.134Z,4.80
2023-05-14T06:46:07.998Z,4.90
2023-05-14T06:48:34.968Z,4.30
2023-05-14T06:51:03.409Z,5.00
2023-05-14T06:55:48.037Z,4.40
2023-05-14T06:58:14.933Z,4.90
2023-05-14T07:00:42.788Z,4.70
2023-05-14T07:03:09.720Z,4.60
2023-05-14T07:05:36.888Z,4.20
2023-05-14T07:08:04.064Z,5.20
2023-05-14T07:10:31.141Z,4.50
2023-05-14T07:12:58.183Z,4.60
2023-05-14T07:15:25.081Z,4.20
2023-05-14T07:17:51.957Z,4.30
2023-05-14T07:20:18.974Z,4.40
2023-05-14T07:22:45.810Z,4.50
2023-05-14T07:25:12.666Z,4.30
2023-05-14T07:27:39.579Z,3.80
2023-05-14T07:30:07.772Z,4.70
2023-05-14T07:32:34.691Z,3.70
2023-05-14T07:35:01.979Z,4.10
2023-05-14T07:37:28.923Z,3.80
2023-05-14T07:39:56.380Z,3.10
2023-05-14T07:42:34.979Z,3.00
2023-05-14T07:45:03.748Z,3.80
2023-05-14T07:47:30.959Z,2.90
2023-05-14T07:49:58.312Z,3.30
2023-05-14T07:52:25.267Z,3.20
2023-05-14T07:54:57.036Z,3.40
2023-05-14T07:57:23.895Z,3.20
2023-05-14T07:59:51.020Z,3.40
2023-05-14T08:02:18.166Z,3.20
2023-05-14T08:04:45.287Z,3.50
2023-05-14T08:07:12.236Z,3.50
2023-05-14T08:09:39.261Z,3.20
2023-05-14T08:12:06.778Z,4.20
2023-05-14T08:14:33.567Z,3.30
2023-05-14T08:17:00.503Z,3.40
2023-05-14T08:19:27.912Z,3.60
2023-05-14T08:21:54.743Z,3.50
2023-05-14T08:24:21.653Z,3.60
2023-05-14T08:26:48.734Z,3.60
2023-05-14T08:29:16.547Z,3.90
2023-05-14T08:31:44.187Z,3.20
2023-05-14T08:34:11.128Z,3.90
2023-05-14T08:36:39.038Z,3.40
2023-05-14T08:39:07.997Z,3.60
2023-05-14T08:41:35.601Z,3.60
2023-05-14T08:44:26.332Z,3.10
2023-05-14T08:46:53.121Z,3.20
2023-05-14T08:49:40.967Z,3.70
2023-05-14T08:52:11.635Z,3.20
2023-05-14T08:54:39.196Z,3.20
2023-05-14T08:57:06.365Z,3.10
2023-05-14T08:59:34.970Z,2.90
2023-05-14T09:02:02.975Z,3.30
2023-05-14T09:04:30.502Z,3.30
2023-05-14T09:06:58.408Z,3.10
2023-05-14T09:09:26.676Z,3.00
2023-05-14T09:11:58.329Z,2.80
2023-05-14T09:14:28.442Z,3.00
2023-05-14T09:16:55.553Z,3.10
2023-05-14T09:19:22.681Z,4.10
2023-05-14T09:21:49.654Z,3.30
2023-05-14T09:24:21.320Z,3.70
2023-05-14T09:26:55.525Z,3.40
2023-05-14T09:29:25.117Z,2.90
2023-05-14T09:31:52.122Z,2.90
2023-05-14T09:34:26.741Z,3.10
2023-05-14T09:37:02.463Z,2.60
2023-05-14T09:39:29.810Z,3.30
2023-05-14T09:41:56.835Z,3.50
2023-05-14T09:44:24.406Z,3.40
2023-05-14T09:46:51.970Z,4.10
2023-05-14T09:49:18.901Z,3.80
2023-05-14T09:51:45.870Z,3.00
2023-05-14T09:54:12.966Z,3.50
2023-05-14T09:56:40.104Z,3.60
2023-05-14T09:59:07.097Z,3.60
2023-05-14T10:01:34.124Z,2.90
2023-05-14T10:04:04.005Z,3.40
2023-05-14T10:06:33.665Z,3.40
2023-05-14T10:09:04.189Z,3.90
2023-05-14T10:11:34.938Z,3.20
2023-05-14T10:14:09.593Z,3.40
2023-05-14T10:16:45.662Z,3.10
2023-05-14T10:19:12.832Z,3.00
2023-05-14T10:21:41.039Z,3.20
2023-05-14T10:24:08.515Z,3.50
2023-05-14T10:26:40.331Z,3.20
2023-05-14T10:29:07.173Z,3.50
2023-05-14T10:31:50.842Z,3.00
2023-05-14T10:34:46.254Z,3.30
2023-05-14T10:37:15.516Z,3.70
2023-05-14T10:39:46.468Z,3.40
2023-05-14T10:42:15.598Z,3.20
2023-05-14T10:44:51.659Z,4.20
2023-05-14T10:47:18.548Z,3.20
2023-05-14T10:49:49.131Z,3.60
2023-05-14T10:52:18.647Z,3.50
2023-05-14T10:54:52.372Z,3.60
2023-05-14T10:57:19.827Z,3.70
2023-05-14T10:59:53.373Z,3.60
2023-05-14T11:02:27.394Z,3.10
2023-05-14T11:05:11.271Z,3.50
2023-05-14T11:07:44.594Z,3.10
2023-05-14T11:10:12.926Z,2.80
2023-05-14T11:12:41.692Z,3.20
2023-05-14T11:15:10.058Z,3.50
2023-05-14T11:17:37.623Z,3.70
2023-05-14T11:20:08.201Z,3.70
2023-05-14T11:22:35.879Z,3.70
2023-05-14T11:25:02.905Z,3.20
2023-05-14T11:27:29.847Z,3.00
2023-05-14T11:29:56.960Z,3.30
2023-05-14T11:32:24.120Z,3.40
2023-05-14T11:34:51.562Z,3.20
2023-05-14T11:37:18.765Z,3.50
2023-05-14T11:39:49.916Z,3.60
2023-05-14T11:42:18.783Z,3.10
2023-05-14T11:44:50.513Z,3.00
2023-05-14T11:47:19.005Z,3.50
2023-05-14T11:49:46.199Z,3.10
2023-05-14T11:52:19.488Z,3.40
2023-05-14T11:54:46.870Z,3.10
2023-05-14T11:57:18.950Z,3.20
2023-05-14T11:59:46.187Z,3.20
2023-05-14T12:02:14.223Z,3.30
2023-05-14T12:04:41.934Z,3.40
2023-05-14T12:07:13.151Z,3.40
2023-05-14T12:09:49.587Z,3.10
2023-05-14T12:12:25.865Z,2.80
2023-05-14T12:14:53.210Z,2.90
2023-05-14T12:17:21.390Z,2.70
2023-05-14T12:20:04.501Z,2.90
2023-05-14T12:22:31.563Z,3.40
2023-05-14T12:24:59.645Z,3.40
2023-05-14T12:27:28.021Z,3.30
2023-05-14T12:30:19.053Z,3.30
2023-05-14T12:32:51.651Z,3.20
2023-05-14T12:35:19.162Z,3.10
2023-05-14T12:37:46.324Z,3.20
2023-05-14T12:40:13.801Z,2.80
2023-05-14T12:42:41.138Z,3.30
2023-05-14T12:45:08.771Z,3.30
2023-05-14T12:47:36.560Z,3.40
2023-05-14T12:50:03.842Z,3.50
2023-05-14T12:52:37.560Z,3.00
2023-05-14T12:55:10.135Z,3.30
2023-05-14T13:01:19.093Z,3.60
2023-05-14T13:04:37.538Z,3.30
2023-05-14T13:07:09.160Z,3.00
2023-05-14T13:09:36.432Z,3.20
2023-05-14T13:12:04.500Z,3.10
2023-05-14T13:14:36.539Z,3.00
2023-05-14T13:17:08.212Z,3.30
2023-05-14T13:19:35.377Z,3.10
2023-05-14T13:22:02.267Z,3.30
2023-05-14T13:25:12.408Z,3.30
2023-05-14T13:27:39.339Z,2.90
2023-05-14T13:30:07.061Z,3.00
2023-05-14T13:32:33.977Z,3.00
2023-05-14T13:35:00.971Z,3.00
2023-05-14T13:37:27.874Z,2.90
2023-05-14T13:39:54.847Z,3.30
2023-05-14T13:42:21.891Z,2.50
2023-05-14T13:44:49.042Z,3.00
2023-05-14T13:48:06.531Z,3.40
2023-05-14T13:50:33.618Z,2.60
2023-05-14T13:53:00.496Z,2.90
2023-05-14T13:55:27.435Z,3.20
2023-05-14T13:57:55.092Z,3.20
2023-05-14T14:00:22.232Z,3.00
2023-05-14T14:02:49.293Z,3.20
2023-05-14T14:05:29.820Z,3.70
2023-05-14T14:08:23.726Z,3.30
2023-05-14T14:11:00.599Z,3.30
2023-05-14T14:14:41.586Z,3.20
2023-05-14T14:17:09.257Z,3.20
2023-05-14T14:19:43.127Z,3.60
2023-05-14T14:22:14.197Z,2.90
2023-05-14T14:24:41.133Z,3.10
2023-05-14T14:27:08.145Z,3.60
2023-05-14T14:29:36.871Z,3.50
2023-05-14T14:32:04.667Z,3.30
2023-05-14T14:35:15.641Z,3.00
2023-05-14T14:38:09.716Z,3.60
2023-05-14T14:40:49.341Z,3.30
2023-05-14T14:43:19.204Z,3.80
2023-05-14T14:46:17.868Z,3.90
2023-05-14T14:48:50.800Z,2.90
2023-05-14T14:51:17.731Z,3.20
2023-05-14T14:54:11.144Z,3.70
2023-05-14T14:56:38.190Z,3.00
2023-05-14T14:59:05.140Z,3.30
2023-05-14T15:01:32.118Z,3.10
2023-05-14T15:03:58.967Z,3.10
2023-05-14T15:06:28.929Z,3.20
2023-05-14T15:08:56.006Z,3.40
2023-05-14T15:11:22.886Z,3.00
2023-05-14T15:13:50.046Z,3.10
2023-05-14T15:16:52.688Z,3.60
2023-05-14T15:19:21.462Z,3.50
2023-05-14T15:21:48.303Z,3.00
2023-05-14T15:24:40.907Z,3.60
2023-05-14T15:27:07.802Z,3.30
2023-05-14T15:29:34.741Z,3.60
2023-05-14T15:32:02.995Z,4.00
2023-05-14T15:34:30.177Z,3.50
2023-05-14T15:36:59.267Z,3.30
2023-05-14T15:40:01.236Z,3.60
2023-05-14T15:42:28.072Z,3.70
2023-05-14T15:45:01.078Z,3.50
2023-05-14T15:47:28.065Z,3.60
2023-05-14T15:49:54.913Z,3.20
2023-05-14T15:52:22.356Z,3.70
2023-05-14T15:54:49.783Z,3.70
2023-05-14T15:57:19.145Z,4.10
2023-05-14T15:59:50.110Z,4.10
2023-05-14T16:02:17.035Z,3.90
2023-05-14T16:04:54.429Z,3.30
2023-05-14T16:07:21.276Z,3.80
2023-05-14T16:09:48.129Z,3.80
2023-05-14T16:12:15.184Z,3.90
2023-05-14T16:14:42.845Z,4.30
2023-05-14T16:17:09.789Z,4.30
2023-05-14T16:19:36.838Z,3.60
2023-05-14T16:22:04.192Z,4.10
2023-05-14T16:24:31.031Z,4.20
2023-05-14T16:26:58.187Z,4.00
2023-05-14T16:29:25.233Z,4.00
2023-05-14T16:31:52.228Z,4.90
2023-05-14T16:34:22.398Z,3.90
2023-05-14T16:36:49.727Z,3.80
2023-05-14T16:39:16.803Z,4.90
2023-05-14T16:41:43.644Z,4.30
2023-05-14T16:44:13.664Z,4.50
2023-05-14T16:46:40.856Z,4.90
2023-05-14T16:49:07.972Z,4.80
2023-05-14T16:51:53.746Z,4.80
2023-05-14T16:54:37.388Z,4.30
2023-05-14T16:57:30.133Z,4.80
2023-05-14T16:59:57.082Z,4.20
2023-05-14T17:02:24.022Z,5.20
2023-05-14T17:04:51.084Z,4.30
2023-05-14T17:07:43.990Z,5.40
2023-05-14T17:10:11.091Z,5.40
2023-05-14T17:12:37.976Z,5.10
2023-05-14T17:15:07.200Z,5.60
2023-05-14T17:17:34.197Z,5.70
2023-05-14T17:20:01.110Z,6.10
2023-05-14T17:22:28.170Z,5.90
2023-05-14T17:24:55.201Z,6.40
2023-05-14T17:27:22.105Z,5.60
2023-05-14T17:30:14.074Z,5.40
2023-05-14T17:32:41.191Z,5.30
2023-05-14T17:35:10.400Z,5.80
2023-05-14T17:37:37.376Z,5.50
2023-05-14T17:40:04.838Z,5.30
2023-05-14T17:42:31.776Z,6.20
2023-05-14T17:44:59.161Z,5.40
2023-05-14T17:47:26.433Z,5.50
2023-05-14T17:49:53.460Z,5.80
2023-05-14T17:52:20.804Z,6.40
2023-05-14T17:54:47.748Z,5.60
2023-05-14T17:57:14.797Z,5.80
2023-05-14T17:59:43.045Z,6.50
2023-05-14T18:02:10.742Z,5.10
2023-05-14T18:04:37.998Z,5.90
2023-05-14T18:07:05.758Z,5.60
2023-05-14T18:09:32.928Z,6.20
2023-05-14T18:11:59.916Z,5.80
2023-05-14T18:14:27.122Z,5.20
2023-05-14T18:16:56.202Z,5.80
2023-05-14T18:22:56.156Z,5.60
2023-05-14T18:25:35.588Z,5.70
2023-05-14T18:28:02.848Z,6.00
2023-05-14T18:30:29.790Z,6.00
2023-05-14T18:32:56.661Z,5.50
2023-05-14T18:35:23.653Z,6.60
2023-05-14T18:38:20.127Z,6.20
2023-05-14T18:40:47.026Z,6.70
2023-05-14T18:43:15.196Z,6.50
2023-05-14T18:45:42.471Z,6.60
2023-05-14T18:48:10.192Z,6.10
2023-05-14T18:50:39.213Z,6.10
2023-05-14T18:53:06.649Z,6.00
2023-05-14T18:55:37.231Z,6.40
2023-05-14T18:58:04.141Z,6.40
2023-05-14T19:00:31.139Z,6.20
2023-05-14T19:02:58.289Z,6.40
2023-05-14T19:05:25.459Z,6.20
2023-05-14T19:07:52.676Z,6.40
2023-05-14T19:23:49.333Z,6.60
2023-05-14T19:26:16.357Z,6.50
2023-05-14T19:28:43.790Z,6.20
2023-05-14T19:31:11.203Z,6.70
2023-05-14T19:33:38.135Z,6.70
2023-05-14T19:36:05.678Z,7.20
2023-05-14T19:38:32.747Z,7.40
2023-05-14T19:40:59.560Z,7.80
2023-05-14T19:43:28.054Z,7.50
2023-05-14T19:45:55.071Z,7.80
2023-05-14T19:48:22.040Z,7.40
2023-05-14T19:50:48.989Z,8.30
2023-05-14T19:53:53.591Z,8.40
2023-05-14T19:56:21.711Z,8.10
2023-05-14T19:58:48.645Z,8.10
2023-05-14T20:01:15.499Z,9.00
2023-05-14T20:03:42.478Z,9.10
2023-05-14T20:06:09.470Z,9.80
2023-05-14T20:08:36.697Z,10.20
2023-05-14T20:11:03.672Z,10.70
2023-05-14T20:13:35.524Z,11.90
2023-05-14T20:16:02.892Z,11.60
2023-05-14T20:18:29.894Z,10.70
2023-05-14T20:20:56.834Z,11.70
2023-05-14T20:23:23.781Z,11.50
2023-05-14T20:25:51.393Z,12.10
2023-05-14T20:28:18.158Z,11.80
2023-05-14T20:30:45.124Z,12.20
2023-05-14T20:33:13.524Z,12.20
2023-05-14T20:35:44.015Z,11.80
2023-05-14T20:38:13.030Z,12.00
2023-05-14T20:41:15.207Z,12.40
2023-05-14T20:43:42.163Z,11.90
2023-05-14T20:46:09.409Z,12.90
2023-05-14T20:48:36.394Z,11.70
2023-05-14T20:51:06.751Z,12.10
2023-05-14T20:53:34.082Z,11.10
2023-05-14T20:56:01.473Z,11.90
2023-05-14T20:58:28.480Z,12.20
2023-05-14T21:00:55.425Z,11.70
2023-05-14T21:03:22.313Z,12.90
2023-05-14T21:05:49.520Z,11.20
2023-05-14T21:08:16.834Z,11.80
2023-05-14T21:10:43.928Z,12.50
2023-05-14T21:13:10.884Z,10.90
2023-05-14T21:15:37.932Z,11.00
2023-05-14T21:18:04.851Z,11.00
2023-05-14T21:20:31.710Z,10.90
2023-05-14T21:22:58.556Z,10.20
2023-05-14T21:26:29.160Z,11.00
2023-05-14T21:28:56.136Z,10.10
2023-05-14T21:31:25.920Z,10.80
2023-05-14T21:33:53.410Z,10.60
2023-05-14T21:36:21.280Z,11.20
2023-05-14T21:38:48.146Z,12.10
2023-05-14T21:41:15.070Z,11.00
2023-05-14T21:43:42.010Z,10.50
2023-05-14T21:46:08.927Z,11.50
2023-05-14T21:48:35.842Z,10.90
2023-05-14T21:51:02.850Z,10.70
2023-05-14T21:53:29.650Z,11.00
2023-05-14T21:55:56.533Z,10.70
2023-05-14T21:58:23.345Z,10.80
2023-05-14T22:00:50.348Z,11.00
2023-05-14T22:03:17.474Z,10.70
2023-05-14T22:05:44.428Z,11.20
2023-05-14T22:08:11.467Z,11.60
2023-05-14T22:10:38.413Z,11.60
2023-05-14T22:13:05.343Z,11.00
2023-05-14T22:15:32.245Z,11.60
2023-05-14T22:17:59.163Z,10.70
2023-05-14T22:20:26.097Z,11.20
2023-05-14T22:22:53.239Z,10.80
2023-05-14T22:25:20.302Z,10.60
2023-05-14T22:27:47.153Z,11.00
2023-05-14T22:30:14.066Z,10.90
2023-05-14T22:32:41.062Z,11.30
2023-05-14T22:35:08.492Z,11.60
2023-05-14T22:37:35.526Z,12.40
2023-05-14T22:40:05.245Z,12.30
2023-05-14T22:42:32.117Z,11.10
2023-05-14T22:44:59.059Z,11.60
2023-05-14T22:47:26.001Z,11.10
2023-05-14T22:49:52.848Z,10.60
2023-05-14T22:52:19.720Z,11.10
2023-05-14T22:54:46.922Z,10.80
2023-05-14T22:57:13.862Z,11.00
2023-05-14T22:59:40.954Z,11.30
2023-05-14T23:02:08.129Z,12.20
2023-05-14T23:04:35.510Z,11.30
2023-05-14T23:07:02.471Z,11.50
2023-05-14T23:09:29.596Z,11.00
2023-05-14T23:11:56.394Z,11.00
2023-05-14T23:14:23.308Z,11.80
2023-05-14T23:16:50.390Z,11.30
2023-05-14T23:19:17.651Z,10.40
2023-05-14T23:21:44.866Z,11.10
2023-05-14T23:24:11.883Z,10.80
2023-05-14T23:26:38.697Z,11.00
2023-05-14T23:29:06.142Z,11.10
2023-05-14T23:31:33.044Z,10.70
2023-05-14T23:33:59.892Z,11.20
2023-05-14T23:36:26.787Z,10.70
2023-05-14T23:38:53.736Z,11.90
2023-05-14T23:41:21.816Z,11.10
2023-05-14T23:43:49.313Z,10.50
2023-05-14T23:46:16.241Z,10.80
2023-05-14T23:48:43.306Z,9.80
2023-05-14T23:51:10.564Z,11.10
2023-05-14T23:53:37.605Z,10.50
2023-05-14T23:56:04.483Z,11.10
2023-05-14T23:58:31.596Z,10.70
